Time;durP1;ratioP1;P1;durP2;ratioP2;P2;SDS_P1;SDS_P2;PMS_P1;PMS_P2;Temp;Humidity;BMP_temperature;BMP_pressure;BME280_temperature;BME280_humidity;BME280_pressure;Samples;Min_cycle;Max_cycle;Signal;HPM_P1;HPM_P2
2023/06/02 00:02:03;;;;;;;4.50;2.80;;;;;;;25.04;44.78;97567.52;105814;1254;72142;-83
2023/06/02 00:04:30;;;;;;;3.60;2.70;;;;;;;25.04;44.92;97568.07;105528;1254;62131;-84
2023/06/02 00:07:03;;;;;;;2.80;2.50;;;;;;;25.03;44.86;97567.02;105623;1254;60520;-85
2023/06/02 00:09:31;;;;;;;3.50;3.00;;;;;;;25.03;44.84;97567.43;105956;1259;73866;-85
2023/06/02 00:11:59;;;;;;;3.10;2.80;;;;;;;25.03;44.90;97564.18;106054;1254;69105;-84
2023/06/02 00:14:26;;;;;;;3.80;3.00;;;;;;;25.02;44.84;97565.11;105901;1254;74113;-84
2023/06/02 00:16:57;;;;;;;2.80;2.60;;;;;;;25.02;44.85;97562.06;109268;1253;60695;-85
2023/06/02 00:19:25;;;;;;;2.90;2.60;;;;;;;25.03;44.92;97561.10;109594;1252;59596;-84
2023/06/02 00:21:53;;;;;;;2.80;2.40;;;;;;;25.03;44.87;97559.15;108192;1254;72675;-84
2023/06/02 00:24:20;;;;;;;2.90;2.50;;;;;;;25.05;44.85;97557.86;105935;1254;69096;-84
2023/06/02 00:26:48;;;;;;;3.20;2.70;;;;;;;25.05;44.87;97556.30;105861;1254;72614;-84
2023/06/02 00:29:16;;;;;;;3.00;2.80;;;;;;;25.06;44.80;97553.68;105878;1255;60470;-84
2023/06/02 00:31:43;;;;;;;3.20;2.50;;;;;;;25.06;44.76;97551.19;105911;1253;60589;-83
2023/06/02 00:34:11;;;;;;;3.20;2.60;;;;;;;25.07;44.73;97550.43;105868;1259;74408;-84
2023/06/02 00:36:39;;;;;;;3.90;2.70;;;;;;;25.07;44.74;97550.38;105727;1262;68733;-84
2023/06/02 00:39:07;;;;;;;3.30;2.90;;;;;;;25.07;44.78;97543.63;105705;1262;73518;-85
2023/06/02 00:41:34;;;;;;;3.60;2.50;;;;;;;25.06;44.92;97544.26;105924;1256;60432;-86
2023/06/02 00:44:02;;;;;;;2.90;2.50;;;;;;;25.06;44.84;97541.22;105605;1252;61094;-85
2023/06/02 00:46:29;;;;;;;3.20;2.90;;;;;;;25.05;44.84;97538.73;105730;1254;73049;-84
2023/06/02 00:48:56;;;;;;;3.80;3.00;;;;;;;25.05;44.82;97538.77;105694;1254;69012;-86
2023/06/02 00:51:23;;;;;;;4.60;3.20;;;;;;;25.05;44.75;97537.33;105657;1254;71959;-83
2023/06/02 00:53:51;;;;;;;3.00;2.50;;;;;;;25.04;44.84;97535.77;105927;1254;60540;-86
2023/06/02 00:56:23;;;;;;;3.00;2.50;;;;;;;25.03;44.77;97532.06;105604;1254;60460;-85
2023/06/02 00:58:50;;;;;;;2.70;2.20;;;;;;;25.03;44.82;97531.55;105832;1258;74780;-85
2023/06/02 01:01:18;;;;;;;3.00;2.50;;;;;;;25.03;44.79;97528.48;105645;1261;67638;-85
2023/06/02 01:03:47;;;;;;;3.30;2.90;;;;;;;25.03;44.82;97533.96;105830;1254;70522;-86
2023/06/02 01:06:15;;;;;;;3.30;2.60;;;;;;;25.02;44.81;97531.48;106106;1253;62315;-85
2023/06/02 01:08:42;;;;;;;3.40;2.50;;;;;;;25.02;44.81;97531.55;105742;1260;60854;-84
2023/06/02 01:11:10;;;;;;;4.00;3.70;;;;;;;25.02;44.78;97530.20;105686;1256;74360;-85
2023/06/02 01:13:38;;;;;;;3.30;2.40;;;;;;;25.01;44.90;97528.69;105689;1254;68966;-83
2023/06/02 01:16:07;;;;;;;3.50;2.50;;;;;;;25.01;44.74;97528.09;105472;1253;72543;-85
2023/06/02 01:18:35;;;;;;;3.00;2.40;;;;;;;25.01;44.82;97525.44;105695;1253;62032;-84
2023/06/02 01:21:05;;;;;;;3.90;2.90;;;;;;;25.00;44.83;97526.41;105626;1254;60515;-84
2023/06/02 01:23:37;;;;;;;3.10;2.60;;;;;;;25.00;44.88;97525.19;105801;1256;74894;-84
2023/06/02 01:26:08;;;;;;;4.10;2.50;;;;;;;25.00;44.82;97518.21;105844;1254;69009;-85
2023/06/02 01:28:36;;;;;;;5.30;3.60;;;;;;;25.00;44.80;97519.86;105826;1254;71347;-84
2023/06/02 01:31:11;;;;;;;3.00;2.70;;;;;;;25.00;44.81;97514.45;105895;1254;60971;-86
2023/06/02 01:33:45;;;;;;;3.10;2.30;;;;;;;24.99;44.86;97515.77;105905;1254;60561;-83
2023/06/02 01:36:12;;;;;;;4.10;2.60;;;;;;;24.99;44.78;97514.00;105828;1253;74007;-84
2023/06/02 01:38:40;;;;;;;3.20;2.50;;;;;;;24.99;44.81;97508.63;105948;1259;67715;-84
2023/06/02 01:41:07;;;;;;;5.20;3.20;;;;;;;24.99;44.82;97507.02;105688;1254;73359;-84
2023/06/02 01:43:35;;;;;;;3.50;2.90;;;;;;;24.98;44.77;97505.08;105822;1254;60453;-84
2023/06/02 01:46:03;;;;;;;2.70;2.50;;;;;;;24.98;44.77;97503.64;105733;1260;60422;-85
2023/06/02 01:48:33;;;;;;;4.00;3.00;;;;;;;24.98;44.79;97502.42;105820;1259;74082;-84
2023/06/02 01:51:00;;;;;;;2.90;2.60;;;;;;;24.98;44.80;97507.87;105749;1260;67916;-85
2023/06/02 01:53:29;;;;;;;2.30;2.00;;;;;;;24.98;44.67;97500.23;106018;1252;73413;-84
2023/06/02 01:55:56;;;;;;;3.00;2.40;;;;;;;24.98;44.73;97499.13;105576;1255;61128;-85
2023/06/02 01:58:24;;;;;;;3.70;2.40;;;;;;;24.98;44.73;97497.54;105686;1254;60896;-85
2023/06/02 02:00:54;;;;;;;3.10;2.50;;;;;;;24.98;44.70;97499.94;105857;1255;74038;-84
2023/06/02 02:03:22;;;;;;;2.90;2.60;;;;;;;24.98;44.75;97496.77;105836;1259;68614;-85
2023/06/02 02:05:50;;;;;;;2.60;2.30;;;;;;;24.98;44.75;97499.88;105679;1254;72608;-85
2023/06/02 02:08:18;;;;;;;2.70;2.40;;;;;;;24.97;44.72;97495.92;105741;1254;60932;-84
2023/06/02 02:10:45;;;;;;;2.80;2.10;;;;;;;24.97;44.73;97492.13;105704;1261;60346;-84
2023/06/02 02:13:12;;;;;;;3.20;2.20;;;;;;;24.97;44.66;97488.43;108212;1254;73907;-84
2023/06/02 02:15:40;;;;;;;2.80;2.20;;;;;;;24.97;44.67;97487.56;109086;1253;67960;-84
2023/06/02 02:18:07;;;;;;;3.20;2.50;;;;;;;24.98;44.64;97492.70;109360;1253;71281;-83
2023/06/02 02:20:39;;;;;;;2.60;2.10;;;;;;;24.99;44.59;97497.13;109343;1252;59243;-84
2023/06/02 02:23:07;;;;;;;3.10;2.30;;;;;;;25.01;44.61;97495.23;109374;1253;58873;-84
2023/06/02 02:25:34;;;;;;;4.20;2.00;;;;;;;25.02;44.62;97492.13;107466;1259;73798;-84
2023/06/02 02:28:01;;;;;;;2.70;2.40;;;;;;;25.04;44.54;97487.98;105812;1254;67792;-84
2023/06/02 02:30:28;;;;;;;4.70;2.70;;;;;;;25.05;44.48;97487.42;105767;1259;73393;-85
2023/06/02 02:32:56;;;;;;;3.50;2.80;;;;;;;25.06;44.51;97487.71;105798;1254;344494;-84
2023/06/02 02:35:23;;;;;;;3.20;2.40;;;;;;;25.07;44.49;97487.80;106027;1253;60513;-85
2023/06/02 02:37:51;;;;;;;3.60;2.40;;;;;;;25.06;44.33;97489.98;105629;1256;74389;-84
2023/06/02 02:40:22;;;;;;;2.90;2.60;;;;;;;25.06;44.35;97488.39;105970;1253;67922;-84
2023/06/02 02:42:50;;;;;;;2.30;2.00;;;;;;;25.06;44.35;97485.72;105763;1254;72639;-86
2023/06/02 02:45:19;;;;;;;2.50;2.30;;;;;;;25.05;44.39;97481.58;105762;1253;60947;-84
2023/06/02 02:47:47;;;;;;;2.60;2.40;;;;;;;25.05;44.44;97484.54;105969;1253;60354;-86
2023/06/02 02:50:14;;;;;;;2.60;2.20;;;;;;;25.04;44.48;97487.04;105928;1253;74083;-85
2023/06/02 02:52:45;;;;;;;3.00;2.10;;;;;;;25.04;44.55;97482.31;109391;1253;68620;-83
2023/06/02 02:55:13;;;;;;;2.30;2.10;;;;;;;25.03;44.60;97481.14;109300;1252;72031;-83
2023/06/02 02:57:41;;;;;;;2.70;2.40;;;;;;;25.04;44.55;97481.39;108249;1254;60411;-84
2023/06/02 03:00:09;;;;;;;3.10;2.70;;;;;;;25.04;44.47;97481.73;105612;1254;61012;-83
2023/06/02 03:02:37;;;;;;;2.50;2.30;;;;;;;25.05;44.35;97480.31;105567;1261;73930;-83
2023/06/02 03:05:06;;;;;;;3.30;2.30;;;;;;;25.05;44.28;97481.03;105548;1254;68678;-82
2023/06/02 03:07:34;;;;;;;2.60;2.10;;;;;;;25.05;44.34;97478.92;105768;1254;71716;-83
2023/06/02 03:10:03;;;;;;;2.60;2.10;;;;;;;25.05;44.35;97477.44;105726;1260;60492;-83
2023/06/02 03:12:31;;;;;;;2.40;2.20;;;;;;;25.04;44.37;97476.77;105824;1254;60572;-85
2023/06/02 03:14:59;;;;;;;2.50;2.10;;;;;;;25.04;44.39;97480.00;105947;1254;73279;-84
2023/06/02 03:17:27;;;;;;;3.30;2.60;;;;;;;25.03;44.49;97478.42;105914;1254;67794;-83
2023/06/02 03:19:55;;;;;;;4.00;2.30;;;;;;;25.02;44.44;97479.66;105805;1254;71622;-86
2023/06/02 03:22:23;;;;;;;2.00;1.80;;;;;;;25.02;44.30;97480.04;105893;1254;61226;-84
2023/06/02 03:24:50;;;;;;;2.70;2.10;;;;;;;25.01;44.44;97482.50;106044;1254;60552;-85
2023/06/02 03:27:19;;;;;;;2.60;2.40;;;;;;;25.01;44.46;97481.48;105920;1260;74257;-84
2023/06/02 03:29:50;;;;;;;2.50;2.30;;;;;;;25.01;44.50;97482.75;106151;1256;67749;-85
2023/06/02 03:32:20;;;;;;;2.70;2.10;;;;;;;25.00;44.46;97480.48;105889;1259;72195;-84
2023/06/02 03:34:48;;;;;;;2.50;2.10;;;;;;;24.99;44.60;97482.30;105644;1254;60810;-85
2023/06/02 03:37:16;;;;;;;2.40;2.20;;;;;;;24.99;44.59;97486.14;106814;1252;60438;-84
2023/06/02 03:39:44;;;;;;;3.30;2.40;;;;;;;24.99;44.61;97489.81;107475;1252;73058;-84
2023/06/02 03:42:12;;;;;;;2.90;2.30;;;;;;;24.99;44.58;97493.84;107270;1252;67749;-84
2023/06/02 03:44:40;;;;;;;2.30;1.90;;;;;;;24.99;44.70;97499.67;106310;1254;72740;-84
2023/06/02 03:47:07;;;;;;;2.90;2.30;;;;;;;25.00;44.73;97509.59;106961;1254;59228;-84
2023/06/02 03:49:36;;;;;;;2.30;2.00;;;;;;;25.01;44.74;97512.80;105704;1254;60456;-83
2023/06/02 03:52:05;;;;;;;3.30;2.40;;;;;;;25.01;44.75;97509.46;105865;1254;74713;-89
2023/06/02 03:54:34;;;;;;;2.20;2.00;;;;;;;25.02;44.74;97510.63;106058;1254;67791;-89
2023/06/02 03:57:02;;;;;;;2.30;2.20;;;;;;;25.01;44.68;97511.84;105854;1254;72690;-87
2023/06/02 03:59:30;;;;;;;2.80;2.30;;;;;;;25.02;44.62;97517.99;105825;1254;61147;-85
2023/06/02 04:01:57;;;;;;;2.50;2.20;;;;;;;25.01;44.65;97517.27;105770;1254;60445;-90
2023/06/02 04:04:25;;;;;;;2.30;1.80;;;;;;;25.01;44.75;97516.55;105887;1259;74588;-89
2023/06/02 04:06:53;;;;;;;3.30;2.20;;;;;;;25.02;44.65;97514.48;105662;1254;69163;-84
2023/06/02 04:09:20;;;;;;;2.00;1.90;;;;;;;25.02;44.67;97510.84;105680;1254;73630;-87
2023/06/02 04:11:48;;;;;;;2.60;1.80;;;;;;;25.02;44.70;97503.71;105593;1254;60502;-87
2023/06/02 04:14:15;;;;;;;2.50;2.30;;;;;;;25.01;44.79;97503.59;105649;1253;60450;-87
2023/06/02 04:16:46;;;;;;;2.20;2.00;;;;;;;25.01;44.77;97507.48;105773;1254;73512;-86
2023/06/02 04:19:13;;;;;;;2.40;1.90;;;;;;;25.01;44.82;97510.27;105727;1254;68927;-89
2023/06/02 04:21:41;;;;;;;3.20;2.60;;;;;;;25.01;44.75;97510.81;105799;1254;73354;-92
2023/06/02 04:24:09;;;;;;;2.70;2.10;;;;;;;25.00;44.80;97512.67;105878;1254;60555;-89
2023/06/02 04:26:36;;;;;;;3.00;2.30;;;;;;;25.00;44.81;97516.35;105812;1260;60442;-90
2023/06/02 04:29:04;;;;;;;2.60;2.10;;;;;;;25.00;44.84;97511.67;105865;1253;72884;-89
2023/06/02 04:31:43;;;;;;;2.20;2.00;;;;;;;25.01;44.82;97508.29;105951;1254;68798;-89
2023/06/02 04:34:14;;;;;;;2.50;2.30;;;;;;;25.00;44.87;97507.19;106096;1254;72464;-89
2023/06/02 04:36:42;;;;;;;2.80;2.20;;;;;;;25.00;44.92;97504.02;105946;1255;60428;-90
2023/06/02 04:39:11;;;;;;;3.10;2.20;;;;;;;25.00;44.82;97502.70;106061;1259;60448;-91
2023/06/02 04:41:39;;;;;;;2.90;2.30;;;;;;;25.00;44.84;97499.96;106074;1259;73051;-92
2023/06/02 04:44:08;;;;;;;2.30;2.10;;;;;;;25.00;44.88;97502.70;105882;1253;70122;-90
2023/06/02 04:46:37;;;;;;;2.30;1.90;;;;;;;25.00;44.92;97502.88;105978;1260;71262;-91
2023/06/02 04:49:08;;;;;;;2.40;2.00;;;;;;;25.00;44.83;97499.80;106222;1260;60430;-91
2023/06/02 04:51:37;;;;;;;2.70;2.20;;;;;;;25.00;44.84;97500.69;106172;1254;60543;-92
2023/06/02 04:54:05;;;;;;;1.90;1.80;;;;;;;25.00;44.98;97499.53;106131;1254;74274;-91
2023/06/02 04:56:34;;;;;;;2.50;1.80;;;;;;;25.00;44.82;97498.23;107051;1254;68791;-91
2023/06/02 04:59:03;;;;;;;3.50;2.10;;;;;;;25.00;44.96;97498.23;106753;1254;71623;-93
2023/06/02 05:01:33;;;;;;;2.80;2.60;;;;;;;25.01;44.82;97503.16;106498;1254;61526;-90
2023/06/02 05:04:00;;;;;;;2.70;2.00;;;;;;;25.01;44.87;97503.92;106836;1251;60594;-91
2023/06/02 05:06:30;;;;;;;3.50;2.70;;;;;;;25.02;44.86;97503.41;106506;1253;73633;-93
2023/06/02 05:08:58;;;;;;;3.40;2.00;;;;;;;25.03;44.82;97502.65;106980;1253;69128;-87
2023/06/02 05:14:54;;;;;;;8.70;3.80;;;;;;;24.98;44.23;97502.97;96417;1264;58762;-95
2023/06/02 05:17:47;;;;;;;4.90;3.80;;;;;;;24.91;43.64;97506.18;108340;1263;59133;-94
2023/06/02 05:37:27;;;;;;;6.60;3.20;;;;;;;25.04;42.01;97508.30;105552;1283;613377;-94
2023/06/02 05:40:00;;;;;;;7.50;3.70;;;;;;;25.07;41.47;97509.50;106231;1267;232250;-91
2023/06/02 05:42:49;;;;;;;4.00;3.60;;;;;;;25.04;41.25;97509.77;107326;1263;59451;-93
2023/06/02 05:45:24;;;;;;;5.20;3.60;;;;;;;25.00;41.26;97511.20;106863;1263;71158;-91
2023/06/02 05:48:31;;;;;;;7.80;3.80;;;;;;;24.98;41.56;97518.86;108027;1263;67629;-94
2023/06/02 05:51:27;;;;;;;4.10;3.40;;;;;;;24.97;41.64;97516.38;108122;1252;74339;-92
2023/06/02 05:54:08;;;;;;;4.90;3.60;;;;;;;24.95;41.72;97516.55;108855;1252;59239;-93
2023/06/02 05:57:10;;;;;;;5.20;3.80;;;;;;;24.93;41.65;97519.07;108926;1253;60630;-92
2023/06/02 06:04:21;;;;;;;5.50;3.80;;;;;;;24.92;41.56;97516.65;107854;1253;70250;-92
2023/06/02 06:07:12;;;;;;;5.90;3.80;;;;;;;24.92;41.62;97516.70;108082;1252;74322;-93
2023/06/02 06:09:42;;;;;;;4.10;3.30;;;;;;;24.94;41.78;97513.56;108380;1253;59928;-93
2023/06/02 06:33:08;;;;;;;5.20;3.60;;;;;;;25.15;41.79;97515.33;84832;1258;59977;-92
2023/06/02 06:35:50;;;;;;;7.70;4.40;;;;;;;25.18;41.69;97517.85;107724;1257;74523;-90
2023/06/02 06:38:19;;;;;;;8.40;3.60;;;;;;;25.18;41.47;97514.47;106892;1259;69342;-88
2023/06/02 06:40:47;;;;;;;8.70;3.70;;;;;;;25.19;41.57;97516.95;106156;1259;72920;-91
2023/06/02 06:43:15;;;;;;;9.60;3.70;;;;;;;25.20;41.54;97520.71;106000;1259;59658;-90
2023/06/02 06:45:59;;;;;;;9.70;4.40;;;;;;;25.20;41.27;97523.63;106371;1259;59612;-91
2023/06/02 06:48:27;;;;;;;7.80;3.80;;;;;;;25.20;41.29;97521.67;106363;1266;72193;-92
2023/06/02 06:51:46;;;;;;;7.10;4.20;;;;;;;25.22;41.39;97526.66;106001;1258;68820;-91
2023/06/02 06:58:43;;;;;;;13.20;4.70;;;;;;;25.25;41.27;97522.71;106166;1259;59743;-89
2023/06/02 07:01:12;;;;;;;11.00;5.20;;;;;;;25.26;41.49;97523.50;106071;1264;59652;-86
2023/06/02 07:03:40;;;;;;;9.30;4.80;;;;;;;25.27;41.35;97529.30;106254;1259;73786;-86
2023/06/02 07:06:12;;;;;;;12.50;4.80;;;;;;;25.25;41.27;97529.13;105739;1259;67985;-91
2023/06/02 07:13:13;;;;;;;8.80;5.20;;;;;;;25.26;41.34;97524.39;106081;1259;59852;-91
2023/06/02 07:15:45;;;;;;;6.90;4.70;;;;;;;25.26;41.41;97522.41;106688;1266;59672;-90
2023/06/02 07:18:13;;;;;;;7.90;4.70;;;;;;;25.27;41.29;97519.52;106151;1259;71768;-92
2023/06/02 07:24:29;;;;;;;6.90;4.50;;;;;;;25.30;41.42;97520.21;106520;1259;72556;-89
2023/06/02 07:31:50;;;;;;;8.50;4.50;;;;;;;25.34;41.90;97518.83;106345;1261;59687;-92
2023/06/02 07:34:18;;;;;;;7.60;4.60;;;;;;;25.36;42.12;97516.40;106695;1259;72694;-93
2023/06/02 07:41:03;;;;;;;9.10;4.70;;;;;;;25.41;41.62;97517.67;107322;1258;72754;-94
2023/06/02 07:48:10;;;;;;;12.60;4.60;;;;;;;25.46;41.63;97518.81;106803;1265;60585;-94
2023/06/02 07:55:33;;;;;;;11.70;4.50;;;;;;;25.51;42.06;97520.93;106330;1262;67118;-91
2023/06/02 08:07:20;;;;;;;21.70;5.40;;;;;;;25.58;41.91;97531.13;106541;1265;59546;-92
2023/06/02 08:09:48;;;;;;;15.40;6.20;;;;;;;25.59;42.29;97537.37;106371;1263;71918;-92
2023/06/02 08:12:17;;;;;;;16.10;5.00;;;;;;;25.60;42.41;97536.86;106244;1261;68324;-92
2023/06/02 08:14:59;;;;;;;15.90;6.00;;;;;;;25.61;42.49;97534.68;106778;1262;73853;-91
2023/06/02 08:22:02;;;;;;;19.40;5.90;;;;;;;25.66;42.37;97536.63;108948;1261;60728;-92
2023/06/02 08:25:06;;;;;;;14.00;6.20;;;;;;;25.68;42.61;97538.31;109223;1260;72867;-91
2023/06/02 08:28:33;;;;;;;23.20;6.90;;;;;;;25.70;42.82;97537.48;109222;1258;68265;-92
2023/06/02 08:32:13;;;;;;;23.70;6.20;;;;;;;25.73;42.81;97535.56;108859;1261;72670;-92
2023/06/02 08:35:17;;;;;;;27.80;6.20;;;;;;;25.76;42.99;97536.04;108614;1261;59645;-91
2023/06/02 08:42:04;;;;;;;22.70;6.30;;;;;;;25.80;42.81;97538.60;106285;1264;72283;-91
2023/06/02 08:44:33;;;;;;;47.70;7.90;;;;;;;25.80;43.10;97540.58;106104;1262;69386;-92
2023/06/02 08:47:01;;;;;;;22.70;6.80;;;;;;;25.80;43.11;97536.77;106720;1263;71099;-92
2023/06/02 08:57:30;;;;;;;47.30;8.40;;;;;;;25.80;42.83;97539.52;106240;1261;73129;-89
2023/06/02 08:59:58;;;;;;;38.70;6.50;;;;;;;25.80;43.04;97541.34;106137;1259;67931;-91
2023/06/02 09:02:29;;;;;;;31.60;8.00;;;;;;;25.81;43.12;97541.34;105979;1259;74563;-91
2023/06/02 09:05:16;;;;;;;;;;;;;;;;;;;;;
2023/06/02 09:08:14;;;;;;;27.20;5.80;;;;;;;25.78;42.93;97544.36;106030;1259;59729;-91
2023/06/02 09:10:45;;;;;;;25.40;5.90;;;;;;;25.76;42.81;97546.16;106992;1259;72752;-91
2023/06/02 09:13:33;;;;;;;24.00;6.10;;;;;;;25.74;42.83;97542.84;106731;1259;68787;-91
2023/06/02 09:16:10;;;;;;;24.10;6.20;;;;;;;25.71;43.01;97537.70;105904;1261;72832;-91
2023/06/02 09:18:39;;;;;;;28.00;5.30;;;;;;;25.70;42.94;97538.75;105977;1259;59724;-90
2023/06/02 09:25:26;;;;;;;22.10;5.80;;;;;;;25.66;42.84;97548.17;106164;1260;73113;-91
2023/06/02 09:27:56;;;;;;;38.00;8.00;;;;;;;25.64;42.50;97546.20;106621;1260;67580;-90
2023/06/02 09:30:27;;;;;;;23.60;4.90;;;;;;;25.62;42.61;97551.47;106045;1260;71663;-91
2023/06/02 09:32:57;;;;;;;17.40;5.60;;;;;;;25.59;42.57;97554.58;106267;1261;60042;-91
2023/06/02 09:35:34;;;;;;;27.20;4.40;;;;;;;25.58;42.49;97558.56;106069;1259;60418;-88
2023/06/02 09:38:09;;;;;;;21.80;5.20;;;;;;;25.57;42.67;97561.71;106175;1259;73161;-91
2023/06/02 09:40:41;;;;;;;20.20;5.30;;;;;;;25.55;42.66;97557.84;106217;1259;68707;-90
2023/06/02 09:43:12;;;;;;;24.30;5.00;;;;;;;25.53;42.76;97553.27;105781;1261;72301;-90
2023/06/02 09:45:46;;;;;;;18.10;5.20;;;;;;;25.52;43.12;97547.06;105799;1259;60825;-93
2023/06/02 09:48:22;;;;;;;19.90;6.20;;;;;;;25.51;43.38;97547.55;105794;1259;60972;-92
2023/06/02 09:50:52;;;;;;;19.00;4.80;;;;;;;25.51;43.43;97546.86;106160;1259;72308;-91
2023/06/02 09:53:25;;;;;;;21.70;5.60;;;;;;;25.50;43.40;97544.08;106717;1259;70895;-91
2023/06/02 09:55:53;;;;;;;25.50;5.80;;;;;;;25.49;43.37;97545.64;106443;1262;73124;-92
2023/06/02 09:58:22;;;;;;;12.50;5.50;;;;;;;25.49;43.44;97547.84;106222;1260;62136;-93
2023/06/02 10:00:50;;;;;;;22.00;5.90;;;;;;;25.49;43.34;97548.78;106484;1262;60042;-92
2023/06/02 10:03:19;;;;;;;15.70;4.60;;;;;;;25.50;43.76;97548.21;107148;1259;73175;-90
2023/06/02 10:09:33;;;;;;;13.40;5.20;;;;;;;25.66;43.07;97539.60;106002;1265;73371;-88
2023/06/02 10:17:41;;;;;;;13.60;5.10;;;;;;;25.73;42.69;97531.16;106444;1259;61659;-90
2023/06/02 10:21:15;;;;;;;13.20;3.60;;;;;;;25.76;42.58;97527.11;106550;1261;73089;-91
2023/06/02 10:24:36;;;;;;;16.60;5.30;;;;;;;25.79;42.23;97518.59;105671;1270;69466;-88
2023/06/02 10:27:31;;;;;;;16.50;4.00;;;;;;;25.82;42.32;97521.15;105824;1273;72717;-90
2023/06/02 10:30:13;;;;;;;8.70;4.00;;;;;;;25.84;42.06;97514.40;105702;1273;59673;-91
2023/06/02 10:34:19;;;;;;;8.40;3.90;;;;;;;25.85;41.85;97514.12;106545;1269;59845;-91
2023/06/02 10:37:15;;;;;;;10.00;4.80;;;;;;;25.87;41.61;97515.33;107032;1271;73100;-94
2023/06/02 10:39:58;;;;;;;12.60;4.30;;;;;;;25.89;41.81;97524.91;105777;1276;68683;-91
2023/06/02 10:42:44;;;;;;;5.60;3.70;;;;;;;25.91;41.63;97527.02;106951;1265;71650;-93
2023/06/02 10:50:14;;;;;;;20.90;5.80;;;;;;;25.97;41.95;97520.20;106500;1264;60310;-91
2023/06/02 10:53:04;;;;;;;9.20;4.80;;;;;;;25.99;41.94;97519.74;106671;1267;74362;-90
2023/06/02 10:57:12;;;;;;;16.80;4.50;;;;;;;26.02;41.78;97515.23;106443;1265;68254;-92
2023/06/02 11:01:48;;;;;;;16.00;5.40;;;;;;;26.05;41.93;97509.36;106382;1265;73348;-92
2023/06/02 11:04:35;;;;;;;17.50;5.10;;;;;;;26.07;41.75;97510.09;108197;1265;61534;-88
2023/06/02 11:17:33;;;;;;;19.30;4.70;;;;;;;26.10;41.57;97509.63;106416;1265;67202;-92
2023/06/02 11:20:13;;;;;;;15.60;4.80;;;;;;;26.10;41.39;97514.04;106086;1267;72099;-94
2023/06/02 11:22:51;;;;;;;26.70;7.00;;;;;;;26.10;41.27;97512.05;105572;1267;60509;-91
2023/06/02 11:25:21;;;;;;;14.10;4.40;;;;;;;26.10;41.34;97510.78;105761;1265;62634;-91
2023/06/02 11:27:51;;;;;;;20.80;4.80;;;;;;;26.10;41.37;97506.33;106511;1265;72809;-90
2023/06/02 11:35:01;;;;;;;14.40;5.20;;;;;;;26.11;41.47;97497.38;106001;1261;72468;-90
2023/06/02 11:38:07;;;;;;;13.70;4.60;;;;;;;26.12;41.65;97494.55;106897;1262;60375;-93
2023/06/02 11:40:40;;;;;;;12.80;5.10;;;;;;;26.13;41.71;97495.25;107498;1262;59595;-93
2023/06/02 11:43:23;;;;;;;11.80;4.30;;;;;;;26.15;41.89;97500.77;107026;1259;73957;-93
2023/06/02 11:46:48;;;;;;;17.10;5.70;;;;;;;26.21;41.73;97506.05;104487;1286;616359;-90
2023/06/02 11:49:44;;;;;;;;;;;;;;;26.23;42.03;97506.18;106106;1267;60891;-89
2023/06/02 11:52:21;;;;;;;20.30;4.70;;;;;;;26.26;42.18;97513.02;106518;1268;59296;-90
2023/06/02 11:54:57;;;;;;;24.20;4.90;;;;;;;26.28;42.00;97503.35;106768;1267;72674;-92
2023/06/02 11:57:42;;;;;;;19.80;4.60;;;;;;;26.30;42.00;97499.98;106844;1271;68885;-92
2023/06/02 12:00:35;;;;;;;19.50;4.90;;;;;;;26.34;41.81;97499.12;99415;1273;10197813;-92
2023/06/02 12:03:24;;;;;;;15.00;3.80;;;;;;;26.36;42.11;97504.86;106717;1267;60617;-92
2023/06/02 12:06:21;;;;;;;21.00;4.60;;;;;;;26.39;41.67;97508.34;106712;1267;71606;-92
2023/06/02 12:08:49;;;;;;;16.80;5.80;;;;;;;26.40;41.89;97510.86;106978;1260;69201;-93
2023/06/02 12:11:26;;;;;;;31.20;6.20;;;;;;;26.41;41.70;97512.16;106512;1264;70609;-94
2023/06/02 12:14:08;;;;;;;16.80;4.50;;;;;;;26.42;41.48;97518.52;106619;1264;59937;-90
2023/06/02 12:17:24;;;;;;;10.30;4.90;;;;;;;26.41;41.28;97518.82;107515;1260;60222;-93
2023/06/02 12:20:16;;;;;;;20.80;5.90;;;;;;;26.40;41.25;97513.12;106307;1260;72648;-93
2023/06/02 12:22:55;;;;;;;20.30;5.20;;;;;;;26.39;41.25;97510.92;106915;1260;69564;-94
2023/06/02 12:25:28;;;;;;;23.00;7.40;;;;;;;26.37;41.36;97510.27;105906;1260;72956;-89
2023/06/02 12:28:27;;;;;;;31.50;6.30;;;;;;;26.36;41.32;97510.10;105883;1262;62052;-91
2023/06/02 12:30:56;;;;;;;26.30;6.70;;;;;;;26.35;41.30;97510.79;106227;1256;62130;-90
2023/06/02 12:33:25;;;;;;;11.20;5.80;;;;;;;26.33;41.27;97510.34;107159;1258;71946;-92
2023/06/02 12:35:55;;;;;;;16.90;6.60;;;;;;;26.35;41.42;97513.84;107428;1256;68664;-92
2023/06/02 12:38:31;;;;;;;17.20;5.80;;;;;;;26.35;41.25;97520.63;107214;1258;73068;-92
2023/06/02 12:41:02;;;;;;;14.20;6.20;;;;;;;26.35;41.44;97518.08;107275;1259;60163;-94
2023/06/02 12:43:33;;;;;;;16.10;6.20;;;;;;;26.34;41.63;97519.61;107302;1257;60250;-93
2023/06/02 12:46:03;;;;;;;12.50;5.60;;;;;;;26.34;41.68;97521.70;107074;1257;72750;-93
2023/06/02 12:48:35;;;;;;;15.10;5.40;;;;;;;26.34;41.73;97529.40;107015;1256;70084;-90
2023/06/02 12:51:04;;;;;;;13.10;6.00;;;;;;;26.33;41.94;97534.66;108229;1256;72634;-91
2023/06/02 12:53:38;;;;;;;15.70;5.80;;;;;;;26.33;42.38;97536.11;107564;1256;60504;-90
2023/06/02 12:56:05;;;;;;;14.20;5.60;;;;;;;26.35;42.75;97541.58;107267;1257;60394;-84
2023/06/02 12:58:35;;;;;;;10.30;5.90;;;;;;;26.37;42.91;97544.96;106779;1259;73755;-88
2023/06/02 13:01:03;;;;;;;20.40;5.80;;;;;;;26.39;43.07;97551.06;107334;1256;69008;-93
2023/06/02 13:03:35;;;;;;;13.60;5.50;;;;;;;26.40;42.94;97570.42;106629;1256;71267;-93
2023/06/02 13:06:06;;;;;;;11.80;6.10;;;;;;;26.41;43.26;97580.19;106448;1256;59822;-90
2023/06/02 13:08:40;;;;;;;14.70;6.50;;;;;;;26.41;43.48;97566.33;106414;1257;61127;-89
2023/06/02 13:11:12;;;;;;;7.60;5.30;;;;;;;26.41;43.60;97559.56;105792;1259;72464;-88
2023/06/02 13:13:49;;;;;;;18.40;6.30;;;;;;;26.41;43.73;97572.42;106245;1261;70152;-86
2023/06/02 13:16:19;;;;;;;16.60;5.90;;;;;;;26.40;43.82;97579.14;106461;1257;73641;-91
2023/06/02 13:18:51;;;;;;;14.60;6.30;;;;;;;26.40;43.70;97582.86;106015;1256;60527;-90
2023/06/02 13:21:23;;;;;;;10.70;6.10;;;;;;;26.41;43.79;97575.56;107030;1256;60451;-87
2023/06/02 13:23:53;;;;;;;17.20;6.70;;;;;;;26.40;44.02;97569.78;106945;1255;73295;-90
2023/06/02 13:26:21;;;;;;;15.60;6.80;;;;;;;26.40;44.05;97578.35;106177;1261;67609;-84
2023/06/02 13:28:49;;;;;;;13.30;6.80;;;;;;;26.39;44.28;97589.61;106125;1261;74032;-90
2023/06/02 13:31:17;;;;;;;21.20;7.10;;;;;;;26.39;44.18;97585.04;106222;1257;59551;-87
2023/06/02 13:33:46;;;;;;;12.70;6.40;;;;;;;26.38;44.30;97578.56;106207;1256;60804;-88
2023/06/02 13:36:14;;;;;;;17.00;7.50;;;;;;;26.38;44.07;97569.93;105889;1259;73036;-82
2023/06/02 13:38:42;;;;;;;12.80;7.50;;;;;;;26.37;44.36;97576.50;105802;1256;68680;-84
2023/06/02 13:41:10;;;;;;;11.70;7.40;;;;;;;26.37;44.45;97587.55;106214;1258;71892;-86
2023/06/02 13:43:37;;;;;;;15.50;7.60;;;;;;;26.36;44.52;97584.85;105960;1261;60643;-84
2023/06/02 13:46:04;;;;;;;17.10;8.10;;;;;;;26.36;44.50;97584.17;105952;1256;59785;-85
2023/06/02 13:48:33;;;;;;;20.00;8.50;;;;;;;26.36;44.87;97581.08;106324;1256;74117;-87
2023/06/02 13:51:01;;;;;;;24.70;9.50;;;;;;;26.36;44.96;97565.08;106223;1261;68798;-85
2023/06/02 13:53:33;;;;;;;15.70;8.20;;;;;;;26.38;45.03;97567.39;106294;1256;71195;-87
2023/06/02 13:56:00;;;;;;;18.70;8.80;;;;;;;26.39;45.06;97563.06;107826;1255;60220;-86
2023/06/02 13:58:31;;;;;;;19.00;8.90;;;;;;;26.39;45.12;97569.41;108920;1257;59795;-85
2023/06/02 14:00:59;;;;;;;20.40;8.00;;;;;;;26.39;45.50;97573.93;109450;1251;73020;-89
2023/06/02 14:03:26;;;;;;;16.00;8.60;;;;;;;26.40;45.45;97580.88;108976;1251;68372;-90
2023/06/02 14:05:54;;;;;;;14.20;8.30;;;;;;;26.41;45.43;97588.95;106445;1259;73194;-88
2023/06/02 14:08:22;;;;;;;21.80;8.10;;;;;;;26.41;45.54;97593.48;106245;1251;60960;-84
2023/06/02 14:10:50;;;;;;;20.30;7.90;;;;;;;26.41;45.63;97593.75;106014;1253;60456;-87
2023/06/02 14:13:18;;;;;;;23.10;9.80;;;;;;;26.40;45.82;97599.05;105926;1258;73883;-86
2023/06/02 14:15:46;;;;;;;25.00;8.50;;;;;;;26.37;45.72;97601.41;106004;1253;68806;-87